createdAt,value
2023-05-10T00:02:36.956Z,16.52
2023-05-10T00:05:04.762Z,21.00
2023-05-10T00:07:32.186Z,17.50
2023-05-10T00:09:59.586Z,16.00
2023-05-10T00:12:26.991Z,21.08
2023-05-10T00:14:54.389Z,22.40
2023-05-10T00:17:21.813Z,16.02
2023-05-10T00:19:50.502Z,17.13
2023-05-10T00:22:17.941Z,25.50
2023-05-10T00:24:45.354Z,38.00
2023-05-10T00:27:12.807Z,26.30
2023-05-10T00:32:07.953Z,39.53
2023-05-10T00:34:35.388Z,38.05
2023-05-10T00:37:04.152Z,39.72
2023-05-10T00:39:31.616Z,32.00
2023-05-10T00:41:59.031Z,30.80
2023-05-10T00:44:27.369Z,44.85
2023-05-10T00:46:54.916Z,25.42
2023-05-10T00:49:22.516Z,32.40
2023-05-10T00:51:50.960Z,47.67
2023-05-10T00:54:19.743Z,31.60
2023-05-10T00:56:49.891Z,41.65
2023-05-10T00:59:18.639Z,31.80
2023-05-10T01:01:46.305Z,29.17
2023-05-10T01:04:14.258Z,29.75
2023-05-10T01:09:09.020Z,30.42
2023-05-10T01:11:38.692Z,46.83
2023-05-10T01:14:06.807Z,37.30
2023-05-10T01:16:36.525Z,37.40
2023-05-10T01:19:05.586Z,56.88
2023-05-10T01:21:35.029Z,33.88
2023-05-10T01:24:11.778Z,36.72
2023-05-10T01:27:03.913Z,64.68
2023-05-10T01:30:04.978Z,74.18
2023-05-10T01:32:45.669Z,56.05
2023-05-10T01:35:17.121Z,49.38
2023-05-10T01:37:47.283Z,70.40
2023-05-10T01:40:19.550Z,67.65
2023-05-10T01:42:49.614Z,50.42
2023-05-10T01:45:20.749Z,46.97
2023-05-10T01:47:52.264Z,34.83
2023-05-10T01:50:21.796Z,64.68
2023-05-10T01:52:51.206Z,48.58
2023-05-10T01:55:22.202Z,44.25
2023-05-10T01:57:52.210Z,40.38
2023-05-10T02:00:20.414Z,47.38
2023-05-10T02:02:49.242Z,22.55
2023-05-10T02:05:18.406Z,21.95
2023-05-10T02:07:46.424Z,25.75
2023-05-10T02:10:15.461Z,22.48
2023-05-10T02:12:44.102Z,22.13
2023-05-10T02:15:13.598Z,25.33
2023-05-10T02:17:41.400Z,16.98
2023-05-10T02:20:09.649Z,10.23
2023-05-10T02:22:38.991Z,8.00
2023-05-10T02:25:08.137Z,7.13
2023-05-10T02:27:35.722Z,9.35
2023-05-10T02:30:03.548Z,18.60
2023-05-10T02:32:31.669Z,8.38
2023-05-10T02:34:59.249Z,11.95
2023-05-10T02:37:27.398Z,14.32
2023-05-10T02:39:57.289Z,21.48
2023-05-10T02:42:26.673Z,16.85
2023-05-10T02:44:55.351Z,14.90
2023-05-10T02:47:22.783Z,19.10
2023-05-10T02:49:50.273Z,12.65
2023-05-10T02:52:18.354Z,17.58
2023-05-10T02:54:47.109Z,10.02
2023-05-10T02:57:19.053Z,15.70
2023-05-10T02:59:47.062Z,21.20
2023-05-10T03:02:14.617Z,23.55
2023-05-10T03:04:42.092Z,13.13
2023-05-10T03:07:10.308Z,14.73
2023-05-10T03:09:37.884Z,13.52
2023-05-10T03:12:09.024Z,9.82
2023-05-10T03:14:47.370Z,20.23
2023-05-10T03:17:17.493Z,22.08
2023-05-10T03:19:50.717Z,18.50
2023-05-10T03:22:23.281Z,10.25
2023-05-10T03:24:50.919Z,11.75
2023-05-10T03:27:18.854Z,28.35
2023-05-10T03:29:48.498Z,12.02
2023-05-10T03:32:16.161Z,11.02
2023-05-10T03:34:44.208Z,18.23
2023-05-10T03:37:11.747Z,17.23
2023-05-10T03:39:39.307Z,18.77
2023-05-10T03:42:08.961Z,19.08
2023-05-10T03:44:36.350Z,19.00
2023-05-10T03:47:05.174Z,26.35
2023-05-10T03:49:33.164Z,33.25
2023-05-10T03:54:27.970Z,27.65
2023-05-10T03:56:55.464Z,38.08
2023-05-10T03:59:23.633Z,32.00
2023-05-10T04:01:52.715Z,37.40
2023-05-10T04:04:22.330Z,35.70
2023-05-10T04:06:50.862Z,42.17
2023-05-10T04:09:18.592Z,59.63
2023-05-10T04:11:45.983Z,65.97
2023-05-10T04:14:13.377Z,50.33
2023-05-10T04:16:40.805Z,72.18
2023-05-10T04:19:08.385Z,52.72
2023-05-10T04:21:38.086Z,66.15
2023-05-10T04:24:05.762Z,53.33
2023-05-10T04:26:33.261Z,55.28
2023-05-10T04:29:00.668Z,68.00
2023-05-10T04:31:28.785Z,58.42
2023-05-10T04:33:56.253Z,86.78
2023-05-10T04:36:23.807Z,71.00
2023-05-10T04:38:52.534Z,76.78
2023-05-10T04:41:19.895Z,70.05
2023-05-10T04:43:47.253Z,85.45
2023-05-10T04:46:14.685Z,85.57
2023-05-10T04:48:42.140Z,80.30
2023-05-10T04:51:09.639Z,88.10
2023-05-10T04:53:37.016Z,72.82
2023-05-10T04:56:06.090Z,92.07
2023-05-10T04:58:33.496Z,70.07
2023-05-10T05:01:06.581Z,105.00
2023-05-10T05:03:34.504Z,86.97
2023-05-10T05:06:02.015Z,89.50
2023-05-10T05:08:29.421Z,92.65
2023-05-10T05:10:56.860Z,85.25
2023-05-10T05:13:25.711Z,104.07
2023-05-10T05:15:53.250Z,99.30
2023-05-10T05:18:20.719Z,104.85
2023-05-10T05:20:48.269Z,105.10
2023-05-10T05:23:15.729Z,132.68
2023-05-10T05:25:43.251Z,88.28
2023-05-10T05:28:10.684Z,115.55
2023-05-10T05:30:39.525Z,126.97
2023-05-10T05:33:07.264Z,138.77
2023-05-10T05:35:35.072Z,146.27
2023-05-10T05:38:02.568Z,111.43
2023-05-10T05:40:30.007Z,171.55
2023-05-10T05:42:57.444Z,139.18
2023-05-10T05:45:24.828Z,121.97
2023-05-10T05:47:53.657Z,116.20
2023-05-10T05:50:21.067Z,118.13
2023-05-10T05:52:48.460Z,133.18
2023-05-10T05:55:16.116Z,132.35
2023-05-10T06:00:11.205Z,141.13
2023-05-10T06:02:41.612Z,204.68
2023-05-10T06:05:10.806Z,233.45
2023-05-10T06:07:38.230Z,138.50
2023-05-10T06:10:06.766Z,145.98
2023-05-10T06:12:34.177Z,147.73
2023-05-10T06:15:01.552Z,135.35
2023-05-10T06:17:29.636Z,153.23
2023-05-10T06:19:57.108Z,140.25
2023-05-10T06:22:25.821Z,186.55
2023-05-10T06:24:53.198Z,168.73
2023-05-10T06:27:20.589Z,162.27
2023-05-10T06:29:49.170Z,165.65
2023-05-10T06:32:17.980Z,147.00
2023-05-10T06:34:45.569Z,151.95
2023-05-10T06:37:12.978Z,135.27
2023-05-10T06:39:41.728Z,167.15
2023-05-10T06:42:09.103Z,147.75
2023-05-10T06:44:36.552Z,158.73
2023-05-10T06:47:03.934Z,127.05
2023-05-10T06:49:31.505Z,114.25
2023-05-10T06:51:58.918Z,163.15
2023-05-10T06:54:26.366Z,143.23
2023-05-10T06:56:55.142Z,112.45
2023-05-10T06:59:22.601Z,147.05
2023-05-10T07:01:50.122Z,139.88
2023-05-10T07:04:18.511Z,134.77
2023-05-10T07:06:47.150Z,134.45
2023-05-10T07:09:14.898Z,123.88
2023-05-10T07:11:42.269Z,117.85
2023-05-10T07:14:11.089Z,122.63
2023-05-10T07:16:38.670Z,134.07
2023-05-10T07:19:06.709Z,113.97
2023-05-10T07:24:01.888Z,133.75
2023-05-10T07:26:29.340Z,141.98
2023-05-10T07:28:56.733Z,159.48
2023-05-10T07:31:25.603Z,104.80
2023-05-10T07:33:53.034Z,136.10
2023-05-10T07:36:20.689Z,94.10
2023-05-10T07:38:48.152Z,97.65
2023-05-10T07:41:15.552Z,95.22
2023-05-10T07:43:43.001Z,93.05
2023-05-10T07:46:11.756Z,84.10
2023-05-10T07:48:40.484Z,79.57
2023-05-10T07:51:10.250Z,80.10
2023-05-10T07:53:37.677Z,74.90
2023-05-10T07:56:19.982Z,83.00
2023-05-10T07:58:47.392Z,79.82
2023-05-10T08:01:14.946Z,79.97
2023-05-10T08:03:43.780Z,87.53
2023-05-10T08:06:11.369Z,91.00
2023-05-10T08:08:38.820Z,83.47
2023-05-10T08:11:06.273Z,75.20
2023-05-10T08:13:33.709Z,71.18
2023-05-10T08:16:01.557Z,77.18
2023-05-10T08:20:57.863Z,58.67
2023-05-10T08:23:25.333Z,68.70
2023-05-10T08:25:52.733Z,74.80
2023-05-10T08:28:20.121Z,93.72
2023-05-10T08:30:47.604Z,82.25
2023-05-10T08:33:15.161Z,89.22
2023-05-10T08:35:42.677Z,98.72
2023-05-10T08:38:11.410Z,84.30
2023-05-10T08:40:39.094Z,89.10
2023-05-10T08:43:07.826Z,82.03
2023-05-10T08:45:37.318Z,80.18
2023-05-10T08:48:06.881Z,70.75
2023-05-10T08:50:35.718Z,66.85
2023-05-10T08:53:05.768Z,65.65
2023-05-10T08:55:37.570Z,76.57
2023-05-10T08:58:05.504Z,72.45
2023-05-10T09:00:33.030Z,74.07
2023-05-10T09:03:00.724Z,57.17
2023-05-10T09:05:28.414Z,67.80
2023-05-10T09:07:55.904Z,55.22
2023-05-10T09:10:23.508Z,58.05
2023-05-10T09:12:52.348Z,43.72
2023-05-10T09:15:20.893Z,48.67
2023-05-10T09:17:49.066Z,48.58
2023-05-10T09:20:18.207Z,45.25
2023-05-10T09:22:45.836Z,53.05
2023-05-10T09:25:13.791Z,42.33
2023-05-10T09:27:42.276Z,39.88
2023-05-10T09:30:11.494Z,55.45
2023-05-10T09:32:39.797Z,51.75
2023-05-10T09:35:11.206Z,49.65
2023-05-10T09:37:42.241Z,43.20
2023-05-10T09:40:12.982Z,43.28
2023-05-10T09:42:40.827Z,44.03
2023-05-10T09:47:37.556Z,36.22
2023-05-10T09:50:05.598Z,33.80
2023-05-10T09:52:47.335Z,31.55
2023-05-10T09:55:15.021Z,40.85
2023-05-10T10:00:10.895Z,39.38
2023-05-10T10:02:42.640Z,32.88
2023-05-10T10:05:10.457Z,31.95
2023-05-10T10:10:05.781Z,29.23
2023-05-10T10:12:33.214Z,37.85
2023-05-10T10:15:02.112Z,33.33
2023-05-10T10:17:30.426Z,38.75
2023-05-10T10:19:59.552Z,36.65
2023-05-10T10:22:27.097Z,34.78
2023-05-10T10:24:55.935Z,28.58
2023-05-10T10:27:27.111Z,30.88
2023-05-10T10:30:00.784Z,30.52
2023-05-10T10:32:31.926Z,25.55
2023-05-10T10:35:02.157Z,26.08
2023-05-10T10:37:45.035Z,27.98
2023-05-10T10:40:25.365Z,24.55
2023-05-10T10:42:52.903Z,23.90
2023-05-10T10:45:20.812Z,31.17
2023-05-10T10:52:46.501Z,42.92
2023-05-10T10:55:15.219Z,50.75
2023-05-10T10:57:47.130Z,49.25
2023-05-10T11:00:30.128Z,50.20
2023-05-10T11:03:01.384Z,44.72
2023-05-10T11:05:46.492Z,42.15
2023-05-10T11:08:17.082Z,38.80
2023-05-10T11:10:52.919Z,46.58
2023-05-10T11:13:29.258Z,41.72
2023-05-10T11:15:57.961Z,49.92
2023-05-10T11:18:26.359Z,34.58
2023-05-10T11:20:54.360Z,35.58
2023-05-10T11:23:24.121Z,34.63
2023-05-10T11:25:51.677Z,35.83
2023-05-10T11:28:19.944Z,42.40
2023-05-10T11:30:47.574Z,29.83
2023-05-10T11:33:18.695Z,28.52
2023-05-10T11:35:46.084Z,26.13
2023-05-10T11:38:14.218Z,25.27
2023-05-10T11:40:43.446Z,28.73
2023-05-10T11:43:12.099Z,30.92
2023-05-10T11:45:40.000Z,40.72
2023-05-10T11:48:07.465Z,39.60
2023-05-10T11:50:34.898Z,37.15
2023-05-10T11:53:02.336Z,42.97
2023-05-10T11:55:31.113Z,54.85
2023-05-10T11:58:03.514Z,46.10
2023-05-10T12:00:31.411Z,59.22
2023-05-10T12:02:59.062Z,49.50
2023-05-10T12:05:26.649Z,53.22
2023-05-10T12:07:54.063Z,46.30
2023-05-10T12:10:27.407Z,41.35
2023-05-10T12:12:54.844Z,55.70
2023-05-10T12:15:24.281Z,40.20
2023-05-10T12:17:52.396Z,40.33
2023-05-10T12:20:21.353Z,36.58
2023-05-10T12:22:49.397Z,30.88
2023-05-10T12:25:17.540Z,28.75
2023-05-10T12:27:49.977Z,27.02
2023-05-10T12:30:20.812Z,33.47
2023-05-10T12:32:49.657Z,22.23
2023-05-10T12:35:17.500Z,32.00
2023-05-10T12:37:45.072Z,24.67
2023-05-10T12:40:12.912Z,28.90
2023-05-10T12:45:09.468Z,22.50
2023-05-10T12:47:37.026Z,24.75
2023-05-10T12:50:06.429Z,28.33
2023-05-10T12:52:34.000Z,27.92
2023-05-10T12:55:01.672Z,24.50
2023-05-10T12:57:29.409Z,26.05
2023-05-10T12:59:57.034Z,36.05
2023-05-10T13:02:24.541Z,30.20
2023-05-10T13:04:52.403Z,27.63
2023-05-10T13:07:21.196Z,28.13
2023-05-10T13:09:48.631Z,25.58
2023-05-10T13:12:16.117Z,20.77
2023-05-10T13:14:43.599Z,22.25
2023-05-10T13:17:11.104Z,22.73
2023-05-10T13:19:38.578Z,20.98
2023-05-10T13:22:06.228Z,19.70
2023-05-10T13:24:34.976Z,30.95
2023-05-10T13:27:02.429Z,32.15
2023-05-10T13:29:29.836Z,23.80
2023-05-10T13:31:57.329Z,30.88
2023-05-10T13:34:25.186Z,25.65
2023-05-10T13:36:53.814Z,27.50
2023-05-10T13:39:22.248Z,26.42
2023-05-10T13:41:50.958Z,25.67
2023-05-10T13:44:18.411Z,27.88
2023-05-10T13:46:46.044Z,25.02
2023-05-10T13:49:13.546Z,23.95
2023-05-10T13:51:40.978Z,21.92
2023-05-10T13:54:08.395Z,15.93
2023-05-10T13:56:36.127Z,17.88
2023-05-10T14:01:32.292Z,14.20
2023-05-10T14:03:59.864Z,20.85
2023-05-10T14:08:55.523Z,13.38
2023-05-10T14:11:24.579Z,12.00
2023-05-10T14:13:52.218Z,12.68
2023-05-10T14:16:20.185Z,8.65
2023-05-10T14:18:49.130Z,11.25
2023-05-10T14:21:16.582Z,15.05
2023-05-10T14:23:43.982Z,13.30
2023-05-10T14:26:11.446Z,14.07
2023-05-10T14:28:38.858Z,10.38
2023-05-10T14:31:06.447Z,7.07
2023-05-10T14:33:33.849Z,10.30
2023-05-10T14:36:04.150Z,8.20
2023-05-10T14:38:31.606Z,10.05
2023-05-10T14:40:59.133Z,9.50
2023-05-10T14:43:28.354Z,11.25
2023-05-10T14:45:55.819Z,9.65
2023-05-10T14:48:23.283Z,16.85
2023-05-10T14:50:50.865Z,12.05
2023-05-10T14:53:19.718Z,12.15
2023-05-10T14:55:47.154Z,12.15
2023-05-10T14:58:14.556Z,12.30
2023-05-10T15:00:42.292Z,15.40
2023-05-10T15:03:10.186Z,11.65
2023-05-10T15:05:38.648Z,12.43
2023-05-10T15:08:06.416Z,12.43
2023-05-10T15:13:03.474Z,9.65
2023-05-10T15:15:30.882Z,10.82
2023-05-10T15:17:58.342Z,10.65
2023-05-10T15:20:25.812Z,8.43
2023-05-10T15:22:53.323Z,11.85
2023-05-10T15:25:20.947Z,15.55
2023-05-10T15:27:48.376Z,8.27
2023-05-10T15:30:17.305Z,10.00
2023-05-10T15:32:44.708Z,7.53
2023-05-10T15:35:12.164Z,10.07
2023-05-10T15:37:39.608Z,10.05
2023-05-10T15:40:07.836Z,11.00
2023-05-10T15:42:35.278Z,13.13
2023-05-10T15:45:02.682Z,12.65
2023-05-10T15:47:31.805Z,10.20
2023-05-10T15:49:59.281Z,11.50
2023-05-10T15:52:27.190Z,12.65
2023-05-10T15:54:54.718Z,18.27
2023-05-10T15:57:22.196Z,20.95
2023-05-10T15:59:50.679Z,17.90
2023-05-10T16:02:19.313Z,19.33
2023-05-10T16:04:48.192Z,23.70
2023-05-10T16:07:15.607Z,14.05
2023-05-10T16:09:43.057Z,17.63
2023-05-10T16:12:10.572Z,14.68
2023-05-10T16:14:38.007Z,15.40
2023-05-10T16:17:05.879Z,16.60
2023-05-10T16:19:33.366Z,16.33
2023-05-10T16:22:02.160Z,19.42
2023-05-10T16:24:29.562Z,17.70
2023-05-10T16:26:57.054Z,23.15
2023-05-10T16:29:24.471Z,16.77
2023-05-10T16:31:51.880Z,24.00
2023-05-10T16:34:20.446Z,18.00
2023-05-10T16:36:47.889Z,19.95
2023-05-10T16:39:16.674Z,15.95
2023-05-10T16:41:44.110Z,14.18
2023-05-10T16:44:11.508Z,15.43
2023-05-10T16:46:39.056Z,16.25
2023-05-10T16:49:07.342Z,16.40
2023-05-10T16:51:34.802Z,22.13
2023-05-10T16:54:02.372Z,19.65
2023-05-10T16:56:31.093Z,27.65
2023-05-10T16:58:58.580Z,17.63
2023-05-10T17:01:27.150Z,16.70
2023-05-10T17:03:54.996Z,20.38
2023-05-10T17:06:22.535Z,19.83
2023-05-10T17:08:49.912Z,17.35
2023-05-10T17:11:17.340Z,17.52
2023-05-10T17:13:46.104Z,13.20
2023-05-10T17:16:13.594Z,15.02
2023-05-10T17:18:41.725Z,18.80
2023-05-10T17:21:09.588Z,18.10
2023-05-10T17:26:04.957Z,25.50
2023-05-10T17:28:32.425Z,16.73
2023-05-10T17:31:01.479Z,18.00
2023-05-10T17:33:28.943Z,23.10
2023-05-10T17:35:56.700Z,15.65
2023-05-10T17:38:24.244Z,18.40
2023-05-10T17:40:52.108Z,14.75
2023-05-10T17:45:48.481Z,29.85
2023-05-10T17:48:17.381Z,23.90
2023-05-10T17:50:44.747Z,22.73
2023-05-10T17:53:12.165Z,22.92
2023-05-10T17:55:40.700Z,20.90
2023-05-10T17:58:08.149Z,25.38
2023-05-10T18:00:35.863Z,25.48
2023-05-10T18:03:03.565Z,24.75
2023-05-10T18:05:32.556Z,29.95
2023-05-10T18:08:00.039Z,40.28
2023-05-10T18:10:27.538Z,34.97
2023-05-10T18:12:54.923Z,30.98
2023-05-10T18:15:22.981Z,30.45
2023-05-10T18:17:50.659Z,29.63
2023-05-10T18:20:18.090Z,32.50
2023-05-10T18:22:46.926Z,41.58
2023-05-10T18:25:14.777Z,29.20
2023-05-10T18:27:42.343Z,25.35
2023-05-10T18:30:12.320Z,24.60
2023-05-10T18:32:39.881Z,24.85
2023-05-10T18:35:08.008Z,30.02
2023-05-10T18:37:35.753Z,30.35
2023-05-10T18:40:06.227Z,28.35
2023-05-10T18:42:33.732Z,34.95
2023-05-10T18:45:01.141Z,27.27
2023-05-10T18:47:28.612Z,29.95
2023-05-10T18:49:56.155Z,32.17
2023-05-10T18:52:23.564Z,28.90
2023-05-10T18:54:51.607Z,37.92
2023-05-10T18:59:47.670Z,28.85
2023-05-10T19:02:15.277Z,39.92
2023-05-10T19:04:42.847Z,38.38
2023-05-10T19:07:10.813Z,42.92
2023-05-10T19:09:38.264Z,42.58
2023-05-10T19:12:05.860Z,57.50
2023-05-10T19:14:33.384Z,35.50
2023-05-10T19:17:02.227Z,46.45
2023-05-10T19:19:32.759Z,37.17
2023-05-10T19:22:00.235Z,35.10
2023-05-10T19:24:27.671Z,34.55
2023-05-10T19:26:56.226Z,36.92
2023-05-10T19:29:24.093Z,41.08
2023-05-10T19:34:21.282Z,48.40
2023-05-10T19:36:48.677Z,40.63
2023-05-10T19:39:16.153Z,56.70
2023-05-10T19:41:43.518Z,58.58
2023-05-10T19:44:10.944Z,43.38
2023-05-10T19:46:38.357Z,40.97
2023-05-10T19:49:05.848Z,36.53
2023-05-10T19:51:34.598Z,40.70
2023-05-10T19:54:02.003Z,60.88
2023-05-10T19:56:29.842Z,72.07
2023-05-10T19:58:57.268Z,53.40
2023-05-10T20:01:24.847Z,52.53
2023-05-10T20:03:52.641Z,48.95
2023-05-10T20:06:20.198Z,44.78
2023-05-10T20:08:48.916Z,39.25
2023-05-10T20:11:16.413Z,77.45
2023-05-10T20:13:43.828Z,79.43
2023-05-10T20:16:11.350Z,97.45
2023-05-10T20:18:39.045Z,61.78
2023-05-10T20:21:06.486Z,71.82
2023-05-10T20:23:33.915Z,67.25
2023-05-10T20:26:02.678Z,61.53
2023-05-10T20:28:30.203Z,55.58
2023-05-10T20:30:57.634Z,50.25
2023-05-10T20:33:25.701Z,54.50
2023-05-10T20:35:53.091Z,47.35
2023-05-10T20:38:20.954Z,48.30
2023-05-10T20:43:18.686Z,48.53
2023-05-10T20:45:46.213Z,58.00
2023-05-10T20:48:13.697Z,42.10
2023-05-10T20:50:41.115Z,40.45
2023-05-10T20:53:08.563Z,49.22
2023-05-10T20:55:36.003Z,42.50
2023-05-10T20:58:04.994Z,45.70
2023-05-10T21:00:34.060Z,60.00
2023-05-10T21:03:01.527Z,50.55
2023-05-10T21:05:29.081Z,55.17
2023-05-10T21:07:56.530Z,42.25
2023-05-10T21:10:24.957Z,44.63
2023-05-10T21:12:52.774Z,39.95
2023-05-10T21:15:20.271Z,37.88
2023-05-10T21:17:49.406Z,45.40
2023-05-10T21:20:17.225Z,40.80
2023-05-10T21:22:44.891Z,46.47
2023-05-10T21:25:12.698Z,46.20
2023-05-10T21:27:40.086Z,39.78
2023-05-10T21:30:08.124Z,35.42
2023-05-10T21:32:36.010Z,50.90
2023-05-10T21:37:32.920Z,54.10
2023-05-10T21:40:00.385Z,46.35
2023-05-10T21:42:27.920Z,69.60
2023-05-10T21:44:55.396Z,47.15
2023-05-10T21:47:22.853Z,52.05
2023-05-10T21:49:50.437Z,50.05
2023-05-10T21:52:17.954Z,52.05
2023-05-10T21:54:46.751Z,63.08
2023-05-10T21:57:14.231Z,68.20
2023-05-10T21:59:41.691Z,59.30
2023-05-10T22:02:09.152Z,82.20
2023-05-10T22:04:36.587Z,63.28
2023-05-10T22:07:03.989Z,58.58
2023-05-10T22:09:31.387Z,89.63
2023-05-10T22:12:00.264Z,75.45
2023-05-10T22:14:27.666Z,58.47
2023-05-10T22:16:55.138Z,55.85
2023-05-10T22:19:22.592Z,52.70
2023-05-10T22:21:50.078Z,86.43
2023-05-10T22:24:17.478Z,50.30
2023-05-10T22:26:44.925Z,71.90
2023-05-10T22:29:13.689Z,50.03
2023-05-10T22:31:41.338Z,54.75
2023-05-10T22:34:08.819Z,91.30
2023-05-10T22:36:36.266Z,126.40
2023-05-10T22:39:03.714Z,101.00
2023-05-10T22:41:31.065Z,85.80
2023-05-10T22:43:58.921Z,113.20
2023-05-10T22:46:29.129Z,73.82
2023-05-10T22:48:56.600Z,67.80
2023-05-10T22:51:23.999Z,86.05
2023-05-10T22:53:51.403Z,67.47
2023-05-10T22:56:18.898Z,123.28
2023-05-10T22:58:46.319Z,124.47
2023-05-10T23:01:14.382Z,145.35
2023-05-10T23:03:43.221Z,136.13
2023-05-10T23:06:10.618Z,146.50
2023-05-10T23:08:38.040Z,114.72
2023-05-10T23:11:05.473Z,96.90
2023-05-10T23:13:32.965Z,112.45
2023-05-10T23:16:06.062Z,90.00
2023-05-10T23:18:33.686Z,111.70
2023-05-10T23:21:02.519Z,85.13
2023-05-10T23:23:29.979Z,78.78
2023-05-10T23:25:57.615Z,82.70
2023-05-10T23:28:25.017Z,144.65
2023-05-10T23:30:55.501Z,96.78
2023-05-10T23:33:23.098Z,95.45
2023-05-10T23:35:50.514Z,87.47
2023-05-10T23:38:19.269Z,100.45
2023-05-10T23:40:48.673Z,128.32
2023-05-10T23:43:16.208Z,138.18
2023-05-10T23:45:43.650Z,123.90
2023-05-10T23:48:11.093Z,89.90
2023-05-10T23:50:38.511Z,86.13
2023-05-10T23:53:05.912Z,106.05
2023-05-10T23:55:34.620Z,100.63
2023-05-10T23:58:02.042Z,107.95
